This is the latest recevied weather packets stored in our database for station/object WA7CUG. If no packets are shown the sender has not sent any weather packets the latest 10 day(s).
| Time | Temp. | Humidity | Pressure | Rain* | Wind** | Luminosity | Snow |
|---|---|---|---|---|---|---|---|
| 1778199744 | 29.44° C | 28% | 1011.7 hPa | 0 mm | - | 354 W/m² | - |
| 1778199440 | 28.89° C | 33% | 1011.5 hPa | 0 mm | - | 372 W/m² | - |
| 1778199136 | 28.33° C | 30% | 1011.7 hPa | 0 mm | - | 351 W/m² | - |
| 1778198832 | 28.89° C | 32% | 1011.2 hPa | 0 mm | - | 345 W/m² | - |
| 1778198529 | 29.44° C | 31% | 1011.8 hPa | 0 mm | - | 394 W/m² | - |
| 1778198225 | 29.44° C | 31% | 1011.8 hPa | 0 mm | - | 417 W/m² | - |
| 1778197923 | 28.89° C | 32% | 1011.5 hPa | 0 mm | - | 418 W/m² | - |
| 1778197620 | 28.89° C | 30% | 1011.7 hPa | 0 mm | - | 435 W/m² | - |
| 1778197316 | 28.89° C | 29% | 1011.7 hPa | 0 mm | - | 442 W/m² | - |
| 1778197013 | 28.33° C | 29% | 1011.8 hPa | 0 mm | - | 459 W/m² | - |
| 1778196711 | 28.89° C | 29% | 1011.8 hPa | 0 mm | - | 475 W/m² | - |
| 1778196408 | 30° C | 31% | 1012 hPa | 0 mm | - | 475 W/m² | - |
| 1778196105 | 29.44° C | 32% | 1011.7 hPa | 0 mm | - | 494 W/m² | - |
| 1778195801 | 30° C | 31% | 1012 hPa | 0 mm | - | 469 W/m² | - |
| 1778195493 | 28.89° C | 33% | 1011.7 hPa | 0 mm | - | 523 W/m² | - |
| 1778195189 | 28.89° C | 28% | 1011.9 hPa | 0 mm | - | 526 W/m² | - |
| 1778194887 | 28.89° C | 28% | 1011.9 hPa | 0 mm | - | 538 W/m² | - |
| 1778194586 | 28.33° C | 28% | 1012.1 hPa | 0 mm | - | 549 W/m² | - |
| 1778194283 | 27.78° C | 28% | 1012.1 hPa | 0 mm | - | 557 W/m² | - |
| 1778193979 | 27.22° C | 31% | 1012.1 hPa | 0 mm | - | 569 W/m² | - |
| 1778193676 | 27.22° C | 34% | 1012.1 hPa | 0 mm | - | 576 W/m² | - |
| 1778193372 | 27.22° C | 30% | 1012.2 hPa | 0 mm | - | 587 W/m² | - |
| 1778193069 | 28.33° C | 29% | 1012.4 hPa | 0 mm | - | 594 W/m² | - |
| 1778192766 | 27.78° C | 30% | 1012.6 hPa | 0 mm | - | 602 W/m² | - |
| 1778192462 | 27.78° C | 31% | 1012.4 hPa | 0 mm | - | 609 W/m² | - |
* Rain latest hour (hover to see other rain measurements)
** Current wind speed in m/s (hover to see current wind gust speed)